createdAt,value
2022-08-03T00:00:31.142Z,15.97
2022-08-03T00:03:04.162Z,15.97
2022-08-03T00:05:35.248Z,15.96
2022-08-03T00:08:03.285Z,15.84
2022-08-03T00:10:32.827Z,15.71
2022-08-03T00:13:00.469Z,15.65
2022-08-03T00:15:28.103Z,15.60
2022-08-03T00:17:55.713Z,15.55
2022-08-03T00:20:23.832Z,15.48
2022-08-03T00:22:51.740Z,15.42
2022-08-03T00:25:19.769Z,15.38
2022-08-03T00:27:48.364Z,15.38
2022-08-03T00:30:18.104Z,15.41
2022-08-03T00:32:45.705Z,15.46
2022-08-03T00:35:26.614Z,15.51
2022-08-03T00:38:01.444Z,15.59
2022-08-03T00:40:29.295Z,15.62
2022-08-03T00:42:57.858Z,15.65
2022-08-03T00:45:29.024Z,15.64
2022-08-03T00:47:57.521Z,15.61
2022-08-03T00:50:27.143Z,15.57
2022-08-03T00:52:57.080Z,15.56
2022-08-03T00:55:25.594Z,15.56
2022-08-03T00:57:54.146Z,15.54
2022-08-03T01:00:24.758Z,15.52
2022-08-03T01:02:53.589Z,15.49
2022-08-03T01:05:22.025Z,15.47
2022-08-03T01:08:11.918Z,15.47
2022-08-03T01:10:49.292Z,15.44
2022-08-03T01:14:01.620Z,15.47
2022-08-03T01:16:36.541Z,15.49
2022-08-03T01:19:13.155Z,15.43
2022-08-03T01:22:05.833Z,15.41
2022-08-03T01:25:05.356Z,15.44
2022-08-03T01:28:01.187Z,15.48
2022-08-03T01:30:32.542Z,15.49
2022-08-03T01:33:12.765Z,15.51
2022-08-03T01:35:47.671Z,15.53
2022-08-03T01:38:22.185Z,15.54
2022-08-03T01:40:53.924Z,15.54
2022-08-03T01:44:27.004Z,15.54
2022-08-03T01:46:17.734Z,15.55
2022-08-03T01:48:47.431Z,15.55
2022-08-03T01:51:18.414Z,15.58
2022-08-03T01:53:48.232Z,15.59
2022-08-03T01:56:17.883Z,15.60
2022-08-03T01:58:48.556Z,15.63
2022-08-03T02:01:17.684Z,15.64
2022-08-03T02:04:00.102Z,15.64
2022-08-03T02:07:01.572Z,15.62
2022-08-03T02:09:22.017Z,15.55
2022-08-03T02:11:52.209Z,15.48
2022-08-03T02:14:21.278Z,15.43
2022-08-03T02:16:50.411Z,15.42
2022-08-03T02:19:19.485Z,15.43
2022-08-03T02:21:56.409Z,15.43
2022-08-03T02:24:30.693Z,15.44
2022-08-03T02:26:59.889Z,15.47
2022-08-03T02:29:39.652Z,15.49
2022-08-03T02:32:14.238Z,15.50
2022-08-03T02:34:46.039Z,15.45
2022-08-03T02:37:18.078Z,15.41
2022-08-03T02:39:47.961Z,15.40
2022-08-03T02:42:18.950Z,15.41
2022-08-03T02:44:51.062Z,15.41
2022-08-03T02:47:21.386Z,15.40
2022-08-03T02:49:52.301Z,15.38
2022-08-03T02:52:23.088Z,15.36
2022-08-03T02:54:54.895Z,15.35
2022-08-03T02:57:23.708Z,15.34
2022-08-03T02:59:53.375Z,15.34
2022-08-03T03:02:22.936Z,15.34
2022-08-03T03:05:50.625Z,15.34
2022-08-03T03:07:52.165Z,15.32
2022-08-03T03:10:22.883Z,15.30
2022-08-03T03:12:55.146Z,15.30
2022-08-03T03:15:25.787Z,15.29
2022-08-03T03:17:54.573Z,15.27
2022-08-03T03:20:29.420Z,15.26
2022-08-03T03:23:02.057Z,15.26
2022-08-03T03:25:32.184Z,15.28
2022-08-03T03:28:01.355Z,15.32
2022-08-03T03:30:30.299Z,15.37
2022-08-03T03:32:59.359Z,15.41
2022-08-03T03:35:27.838Z,15.47
2022-08-03T03:37:56.615Z,15.55
2022-08-03T03:40:24.900Z,15.61
2022-08-03T03:42:52.675Z,15.68
2022-08-03T03:45:22.283Z,15.74
2022-08-03T03:47:50.186Z,15.79
2022-08-03T03:50:18.829Z,15.83
2022-08-03T03:52:46.575Z,15.87
2022-08-03T03:55:18.320Z,15.90
2022-08-03T03:57:46.730Z,15.91
2022-08-03T04:00:16.486Z,15.93
2022-08-03T04:02:45.321Z,15.95
2022-08-03T04:05:29.568Z,15.96
2022-08-03T04:08:22.454Z,15.98
2022-08-03T04:11:16.862Z,15.99
2022-08-03T04:13:51.733Z,16.03
2022-08-03T04:16:22.632Z,16.08
2022-08-03T04:18:57.542Z,16.16
2022-08-03T04:21:26.386Z,16.20
2022-08-03T04:23:59.256Z,16.24
2022-08-03T04:26:31.897Z,16.28
2022-08-03T04:29:00.915Z,16.33
2022-08-03T04:31:30.292Z,16.42
2022-08-03T04:33:59.365Z,16.50
2022-08-03T04:36:31.751Z,16.56
2022-08-03T04:39:08.170Z,16.63
2022-08-03T04:42:04.447Z,16.71
2022-08-03T04:44:28.382Z,16.82
2022-08-03T04:46:57.858Z,16.89
2022-08-03T04:49:27.117Z,16.96
2022-08-03T04:51:54.914Z,16.99
2022-08-03T04:54:22.514Z,17.05
2022-08-03T04:56:50.121Z,17.09
2022-08-03T04:59:17.981Z,17.14
2022-08-03T05:01:45.837Z,17.20
2022-08-03T05:04:14.461Z,17.28
2022-08-03T05:06:48.354Z,17.39
2022-08-03T05:09:52.888Z,17.50
2022-08-03T05:12:11.146Z,17.59
2022-08-03T05:14:39.181Z,17.67
2022-08-03T05:17:08.021Z,17.78
2022-08-03T05:19:35.758Z,17.89
2022-08-03T05:22:03.482Z,18.01
2022-08-03T05:24:31.145Z,18.17
2022-08-03T05:26:58.849Z,18.31
2022-08-03T05:29:26.420Z,18.45
2022-08-03T05:31:54.005Z,18.61
2022-08-03T05:34:21.623Z,18.75
2022-08-03T05:36:49.204Z,18.87
2022-08-03T05:39:16.879Z,18.99
2022-08-03T05:41:44.554Z,19.13
2022-08-03T05:44:12.126Z,19.28
2022-08-03T05:46:39.955Z,19.41
2022-08-03T05:49:07.629Z,19.53
2022-08-03T05:51:35.417Z,19.65
2022-08-03T05:54:03.359Z,19.76
2022-08-03T05:56:31.085Z,19.87
2022-08-03T05:59:04.223Z,19.95
2022-08-03T06:01:44.122Z,20.05
2022-08-03T06:04:11.940Z,20.09
2022-08-03T06:06:39.536Z,20.14
2022-08-03T06:09:07.136Z,20.20
2022-08-03T06:11:35.317Z,20.24
2022-08-03T06:14:03.617Z,20.27
2022-08-03T06:16:31.483Z,20.27
2022-08-03T06:18:59.148Z,20.29
2022-08-03T06:21:27.186Z,20.32
2022-08-03T06:23:55.715Z,20.36
2022-08-03T06:26:27.842Z,20.36
2022-08-03T06:28:56.061Z,20.41
2022-08-03T06:31:32.849Z,20.49
2022-08-03T06:34:33.937Z,20.60
2022-08-03T06:36:58.503Z,20.72
2022-08-03T06:39:30.132Z,20.84
2022-08-03T06:41:58.108Z,20.98
2022-08-03T06:44:26.151Z,21.10
2022-08-03T06:46:53.789Z,21.24
2022-08-03T06:49:21.499Z,21.39
2022-08-03T06:52:04.118Z,21.60
2022-08-03T06:54:34.654Z,21.85
2022-08-03T06:57:02.492Z,22.06
2022-08-03T07:00:08.951Z,22.31
2022-08-03T07:02:19.832Z,22.59
2022-08-03T07:04:48.952Z,22.84
2022-08-03T07:07:17.712Z,23.05
2022-08-03T07:09:56.483Z,23.21
2022-08-03T07:12:29.933Z,23.32
2022-08-03T07:15:02.338Z,23.42
2022-08-03T07:17:32.951Z,23.52
2022-08-03T07:20:03.060Z,23.58
2022-08-03T07:22:30.691Z,23.63
2022-08-03T07:24:59.190Z,23.67
2022-08-03T07:27:28.405Z,23.69
2022-08-03T07:29:57.955Z,23.67
2022-08-03T07:32:27.013Z,23.66
2022-08-03T07:34:58.499Z,23.65
2022-08-03T07:37:29.196Z,23.67
2022-08-03T07:39:57.374Z,23.72
2022-08-03T07:42:26.100Z,23.77
2022-08-03T07:44:54.013Z,23.92
2022-08-03T07:47:24.453Z,24.12
2022-08-03T07:49:52.842Z,24.28
2022-08-03T07:52:36.154Z,24.42
2022-08-03T07:55:06.403Z,24.54
2022-08-03T07:57:35.150Z,24.62
2022-08-03T08:00:07.369Z,24.73
2022-08-03T08:02:41.567Z,24.86
2022-08-03T08:05:10.860Z,24.92
2022-08-03T08:07:39.377Z,24.99
2022-08-03T08:10:09.840Z,25.05
2022-08-03T08:12:39.151Z,25.11
2022-08-03T08:15:08.070Z,25.20
2022-08-03T08:17:53.870Z,25.31
2022-08-03T08:20:28.471Z,25.40
2022-08-03T08:23:25.480Z,25.45
2022-08-03T08:25:56.914Z,25.49
2022-08-03T08:28:30.842Z,25.52
2022-08-03T08:31:01.057Z,25.58
2022-08-03T08:33:42.109Z,25.63
2022-08-03T08:36:16.709Z,25.65
2022-08-03T08:38:45.238Z,25.68
2022-08-03T08:41:14.598Z,25.69
2022-08-03T08:43:42.917Z,25.70
2022-08-03T08:46:23.239Z,25.71
2022-08-03T08:48:53.871Z,25.69
2022-08-03T08:51:52.749Z,25.69
2022-08-03T08:54:18.123Z,25.70
2022-08-03T08:56:46.952Z,25.74
2022-08-03T08:59:15.074Z,25.80
2022-08-03T09:01:43.001Z,25.84
2022-08-03T09:04:12.262Z,25.88
2022-08-03T09:06:39.873Z,25.91
2022-08-03T09:09:08.258Z,25.95
2022-08-03T09:12:00.800Z,26.00
2022-08-03T09:14:36.974Z,26.04
2022-08-03T09:17:10.085Z,26.11
2022-08-03T09:20:06.294Z,26.14
2022-08-03T09:22:33.922Z,26.12
2022-08-03T09:25:23.942Z,26.12
2022-08-03T09:27:53.418Z,26.15
2022-08-03T09:30:34.352Z,26.16
2022-08-03T09:33:05.397Z,26.21
2022-08-03T09:38:25.856Z,26.33
2022-08-03T09:40:59.554Z,26.41
2022-08-03T09:43:28.619Z,26.49
2022-08-03T09:46:04.783Z,26.54
2022-08-03T09:48:34.796Z,26.55
2022-08-03T09:51:12.878Z,26.55
2022-08-03T09:53:59.121Z,26.55
2022-08-03T09:56:44.812Z,26.53
2022-08-03T09:59:23.693Z,26.53
2022-08-03T10:01:51.536Z,26.57
2022-08-03T10:04:19.410Z,26.57
2022-08-03T10:07:06.228Z,26.57
2022-08-03T10:09:34.001Z,26.55
2022-08-03T10:12:17.810Z,26.52
2022-08-03T10:14:46.633Z,26.51
2022-08-03T10:17:14.280Z,26.55
2022-08-03T10:19:42.022Z,26.65
2022-08-03T10:22:16.189Z,26.77
2022-08-03T10:25:02.746Z,26.81
2022-08-03T10:27:35.188Z,26.82
2022-08-03T10:30:06.715Z,26.81
2022-08-03T10:32:40.395Z,26.83
2022-08-03T10:35:20.112Z,26.85
2022-08-03T10:38:08.603Z,26.92
2022-08-03T10:40:55.883Z,26.98
2022-08-03T10:43:40.769Z,27.04
2022-08-03T10:46:08.622Z,27.12
2022-08-03T10:48:37.098Z,27.19
2022-08-03T10:51:06.752Z,27.32
2022-08-03T10:53:40.354Z,27.45
2022-08-03T10:56:50.518Z,27.53
2022-08-03T10:59:27.653Z,27.67
2022-08-03T11:02:00.153Z,27.79
2022-08-03T11:04:30.380Z,27.95
2022-08-03T11:07:17.618Z,28.13
2022-08-03T11:09:48.648Z,28.33
2022-08-03T11:12:30.077Z,28.44
2022-08-03T11:15:05.586Z,28.56
2022-08-03T11:17:46.505Z,28.66
2022-08-03T11:20:45.465Z,28.78
2022-08-03T11:23:15.009Z,28.91
2022-08-03T11:26:14.638Z,29.03
2022-08-03T11:28:44.508Z,29.09
2022-08-03T11:31:49.390Z,29.16
2022-08-03T11:34:17.645Z,29.32
2022-08-03T11:37:16.500Z,29.40
2022-08-03T11:39:47.324Z,29.48
2022-08-03T11:42:33.717Z,29.53
2022-08-03T11:45:01.405Z,29.52
2022-08-03T11:47:29.988Z,29.46
2022-08-03T11:50:01.760Z,29.39
2022-08-03T11:52:37.794Z,29.32
2022-08-03T11:55:10.209Z,29.26
2022-08-03T11:58:58.057Z,29.18
2022-08-03T12:00:28.873Z,29.16
2022-08-03T12:02:58.047Z,29.16
2022-08-03T12:05:52.159Z,29.17
2022-08-03T12:08:36.173Z,29.20
2022-08-03T12:11:06.781Z,29.26
2022-08-03T12:14:44.751Z,29.36
2022-08-03T12:16:32.931Z,29.53
2022-08-03T12:19:03.300Z,29.70
2022-08-03T12:21:31.058Z,29.92
2022-08-03T12:24:04.523Z,30.13
2022-08-03T12:26:45.237Z,30.49
2022-08-03T12:29:27.654Z,30.97
2022-08-03T12:31:56.125Z,31.26
2022-08-03T12:34:23.932Z,31.66
2022-08-03T12:36:55.970Z,32.03
2022-08-03T12:39:25.482Z,32.52
2022-08-03T12:41:54.585Z,33.16
2022-08-03T12:44:39.318Z,34.05
2022-08-03T12:47:07.139Z,35.14
2022-08-03T12:49:51.879Z,36.24
2022-08-03T12:52:22.017Z,37.24
2022-08-03T12:55:00.713Z,37.83
2022-08-03T12:57:44.296Z,38.34
2022-08-03T13:00:21.544Z,39.20
2022-08-03T13:03:26.528Z,40.22
2022-08-03T13:05:49.247Z,41.06
2022-08-03T13:08:21.086Z,42.05
2022-08-03T13:10:48.796Z,42.83
2022-08-03T13:13:16.880Z,43.19
2022-08-03T13:15:48.051Z,43.90
2022-08-03T13:18:17.285Z,45.04
2022-08-03T13:20:45.491Z,46.21
2022-08-03T13:23:22.097Z,46.84
2022-08-03T13:25:55.772Z,47.33
2022-08-03T13:28:23.869Z,47.63
2022-08-03T13:30:51.626Z,47.14
2022-08-03T13:33:19.244Z,46.67
2022-08-03T13:35:46.946Z,46.90
2022-08-03T13:38:15.239Z,47.37
2022-08-03T13:40:46.137Z,48.05
2022-08-03T13:43:17.763Z,48.46
2022-08-03T13:45:51.244Z,48.48
2022-08-03T13:48:36.664Z,48.65
2022-08-03T13:51:21.864Z,48.85
2022-08-03T13:53:52.147Z,48.91
2022-08-03T13:56:19.814Z,49.14
2022-08-03T13:58:47.464Z,49.30
2022-08-03T14:01:15.456Z,49.59
2022-08-03T14:03:43.154Z,50.03
2022-08-03T14:06:10.763Z,50.30
2022-08-03T14:08:38.416Z,50.25
2022-08-03T14:11:06.578Z,50.09
2022-08-03T14:13:34.163Z,49.83
2022-08-03T14:16:01.845Z,49.69
2022-08-03T14:18:33.487Z,49.69
2022-08-03T14:21:07.503Z,49.81
2022-08-03T14:23:37.860Z,49.93
2022-08-03T14:26:09.404Z,49.98
2022-08-03T14:28:37.629Z,50.08
2022-08-03T14:31:08.220Z,50.23
2022-08-03T14:33:43.315Z,49.96
2022-08-03T14:36:10.983Z,49.66
2022-08-03T14:38:38.543Z,49.61
2022-08-03T14:41:06.203Z,49.99
2022-08-03T14:43:39.933Z,50.39
2022-08-03T14:46:27.569Z,50.69
2022-08-03T14:50:32.846Z,50.60
2022-08-03T14:51:51.336Z,50.40
2022-08-03T14:54:22.278Z,50.36
2022-08-03T14:56:49.976Z,50.40
2022-08-03T14:59:17.643Z,50.46
2022-08-03T15:02:03.168Z,50.45
2022-08-03T15:04:32.874Z,50.22
2022-08-03T15:07:00.437Z,50.18
2022-08-03T15:09:28.045Z,49.97
2022-08-03T15:11:55.665Z,49.42
2022-08-03T15:14:32.260Z,49.17
2022-08-03T15:17:01.454Z,49.21
2022-08-03T15:20:03.627Z,49.07
2022-08-03T15:22:19.023Z,48.96
2022-08-03T15:24:48.554Z,48.87
2022-08-03T15:27:16.182Z,48.80
2022-08-03T15:30:09.386Z,48.69
2022-08-03T15:32:31.459Z,48.60
2022-08-03T15:35:00.428Z,48.52
2022-08-03T15:37:28.439Z,48.31
2022-08-03T15:40:00.090Z,48.15
2022-08-03T15:42:30.195Z,48.17
2022-08-03T15:44:58.442Z,48.06
2022-08-03T15:47:26.806Z,47.98
2022-08-03T15:49:54.595Z,47.87
2022-08-03T15:52:22.295Z,47.65
2022-08-03T15:54:50.328Z,47.57
2022-08-03T15:57:18.098Z,47.50
2022-08-03T15:59:45.854Z,47.15
2022-08-03T16:02:13.716Z,46.65
2022-08-03T16:04:41.312Z,46.63
2022-08-03T16:07:12.812Z,46.65
2022-08-03T16:09:42.875Z,46.65
2022-08-03T16:12:15.563Z,46.45
2022-08-03T16:14:52.756Z,46.20
2022-08-03T16:17:22.636Z,46.03
2022-08-03T16:19:52.159Z,45.79
2022-08-03T16:22:26.299Z,45.41
2022-08-03T16:24:54.553Z,45.20
2022-08-03T16:27:36.945Z,45.24
2022-08-03T16:30:07.301Z,45.16
2022-08-03T16:32:35.445Z,45.00
2022-08-03T16:35:04.655Z,44.92
2022-08-03T16:37:39.669Z,44.91
2022-08-03T16:40:17.650Z,44.74
2022-08-03T16:42:47.639Z,44.59
2022-08-03T16:45:15.310Z,44.17
2022-08-03T16:47:42.916Z,43.47
2022-08-03T16:50:17.177Z,43.19
2022-08-03T16:52:48.504Z,42.96
2022-08-03T16:55:43.515Z,42.76
2022-08-03T16:58:06.076Z,42.53
2022-08-03T17:00:41.524Z,42.25
2022-08-03T17:03:18.845Z,41.86
2022-08-03T17:05:50.020Z,41.25
2022-08-03T17:08:18.954Z,40.75
2022-08-03T17:10:55.708Z,40.20
2022-08-03T17:13:39.034Z,39.45
2022-08-03T17:16:10.409Z,38.71
2022-08-03T17:18:47.385Z,38.04
2022-08-03T17:21:17.357Z,37.40
2022-08-03T17:23:55.138Z,36.70
2022-08-03T17:26:23.774Z,35.88
2022-08-03T17:29:11.288Z,35.00
2022-08-03T17:31:48.842Z,34.30
2022-08-03T17:34:19.334Z,33.80
2022-08-03T17:37:03.836Z,33.37
2022-08-03T17:39:57.046Z,32.85
2022-08-03T17:42:30.268Z,32.36
2022-08-03T17:45:02.568Z,31.94
2022-08-03T17:47:57.475Z,31.51
2022-08-03T17:50:46.487Z,31.17
2022-08-03T17:53:24.306Z,30.80
2022-08-03T17:56:03.320Z,30.46
2022-08-03T17:58:52.765Z,30.18
2022-08-03T18:02:00.651Z,29.89
2022-08-03T18:04:41.280Z,29.50
2022-08-03T18:07:12.472Z,29.22
2022-08-03T18:10:04.772Z,28.99
2022-08-03T18:12:59.485Z,28.70
2022-08-03T18:15:32.452Z,28.41
2022-08-03T18:18:10.278Z,28.15
2022-08-03T18:20:42.106Z,27.92
2022-08-03T18:23:25.444Z,27.71
2022-08-03T18:26:04.854Z,27.48
2022-08-03T18:28:34.368Z,27.27
2022-08-03T18:31:05.908Z,27.08
2022-08-03T18:34:19.531Z,26.87
2022-08-03T18:36:30.620Z,26.62
2022-08-03T18:41:48.066Z,26.16
2022-08-03T18:44:52.659Z,25.96
2022-08-03T18:50:33.980Z,25.39
2022-08-03T18:53:19.638Z,25.13
2022-08-03T18:56:03.220Z,24.89
2022-08-03T18:58:48.639Z,24.71
2022-08-03T19:01:59.087Z,24.55
2022-08-03T19:04:46.222Z,24.38
2022-08-03T19:07:22.200Z,24.24
2022-08-03T19:10:09.651Z,24.10
2022-08-03T19:12:45.779Z,23.95
2022-08-03T19:15:15.604Z,23.80
2022-08-03T19:17:50.212Z,23.67
2022-08-03T19:20:37.755Z,23.53
2022-08-03T19:23:06.768Z,23.40
2022-08-03T19:25:39.271Z,23.29
2022-08-03T19:28:09.100Z,23.19
2022-08-03T19:33:31.193Z,22.97
2022-08-03T19:36:26.406Z,22.84
2022-08-03T19:38:59.162Z,22.73
2022-08-03T19:41:42.253Z,22.64
2022-08-03T19:44:23.765Z,22.53
2022-08-03T19:47:01.208Z,22.41
2022-08-03T19:50:05.303Z,22.31
2022-08-03T19:52:31.414Z,22.18
2022-08-03T19:55:03.884Z,22.04
2022-08-03T19:57:33.361Z,21.90
2022-08-03T20:00:03.396Z,21.75
2022-08-03T20:02:33.307Z,21.65
2022-08-03T20:05:01.288Z,21.55
2022-08-03T20:07:32.719Z,21.47
2022-08-03T20:10:04.188Z,21.38
2022-08-03T20:12:39.142Z,21.31
2022-08-03T20:15:09.066Z,21.22
2022-08-03T20:17:54.515Z,21.14
2022-08-03T20:20:30.034Z,21.04
2022-08-03T20:23:00.486Z,20.96
2022-08-03T20:25:38.264Z,20.88
2022-08-03T20:28:15.111Z,20.80
2022-08-03T20:30:47.356Z,20.74
2022-08-03T20:33:18.630Z,20.67
2022-08-03T20:35:49.620Z,20.59
2022-08-03T20:38:18.928Z,20.50
2022-08-03T20:40:48.371Z,20.42
2022-08-03T20:43:16.949Z,20.35
2022-08-03T20:46:00.390Z,20.25
2022-08-03T20:48:37.243Z,20.17
2022-08-03T20:51:15.719Z,20.11
2022-08-03T20:54:00.395Z,20.04
2022-08-03T20:56:33.582Z,19.99
2022-08-03T20:59:06.999Z,19.94
2022-08-03T21:01:44.343Z,19.89
2022-08-03T21:04:13.581Z,19.86
2022-08-03T21:06:53.142Z,19.83
2022-08-03T21:09:39.852Z,19.80
2022-08-03T21:12:15.489Z,19.78
2022-08-03T21:12:58.867Z,26.40
2022-08-03T21:13:00.464Z,25.73
2022-08-03T21:13:09.879Z,23.08
2022-08-03T21:15:04.415Z,19.74
2022-08-03T21:17:42.062Z,19.70
2022-08-03T21:20:12.058Z,19.66
2022-08-03T21:22:45.142Z,19.63
2022-08-03T21:25:16.012Z,19.60
2022-08-03T21:27:43.827Z,19.56
2022-08-03T21:30:12.278Z,19.54
2022-08-03T21:32:42.971Z,19.49
2022-08-03T21:35:12.355Z,19.43
2022-08-03T21:37:41.659Z,19.37
2022-08-03T21:40:12.325Z,19.35
2022-08-03T21:42:41.360Z,19.33
2022-08-03T21:45:16.924Z,19.31
2022-08-03T21:47:46.851Z,19.27
2022-08-03T21:50:15.542Z,19.19
2022-08-03T21:52:48.876Z,19.13
2022-08-03T21:55:20.527Z,19.08
2022-08-03T21:57:53.024Z,19.04
2022-08-03T22:00:23.279Z,19.00
2022-08-03T22:02:56.045Z,18.98
2022-08-03T22:05:29.031Z,18.95
2022-08-03T22:08:15.370Z,18.91
2022-08-03T22:10:43.746Z,18.88
2022-08-03T22:13:13.896Z,18.86
2022-08-03T22:15:42.085Z,18.84
2022-08-03T22:18:12.722Z,18.79
2022-08-03T22:20:40.870Z,18.74
2022-08-03T22:23:09.745Z,18.69
2022-08-03T22:25:39.666Z,18.66
2022-08-03T22:28:10.541Z,18.63
2022-08-03T22:30:39.649Z,18.61
2022-08-03T22:33:11.643Z,18.59
2022-08-03T22:35:47.458Z,18.57
2022-08-03T22:38:18.003Z,18.55
2022-08-03T22:40:48.997Z,18.53
2022-08-03T22:43:17.340Z,18.51
2022-08-03T22:46:10.477Z,18.49
2022-08-03T22:48:40.919Z,18.47
2022-08-03T22:51:10.095Z,18.44
2022-08-03T22:53:38.976Z,18.42
2022-08-03T22:56:07.645Z,18.40
2022-08-03T22:58:35.215Z,18.38
2022-08-03T23:01:11.476Z,18.36
2022-08-03T23:04:01.248Z,18.31
2022-08-03T23:06:34.855Z,18.24
2022-08-03T23:09:08.565Z,18.19
2022-08-03T23:11:45.239Z,18.18
2022-08-03T23:14:18.372Z,18.16
2022-08-03T23:16:47.683Z,18.14
2022-08-03T23:19:25.028Z,18.13
2022-08-03T23:22:02.469Z,18.11
2022-08-03T23:24:36.363Z,18.10
2022-08-03T23:27:06.930Z,18.10
2022-08-03T23:29:36.759Z,18.11
2022-08-03T23:32:05.791Z,18.11
2022-08-03T23:34:49.413Z,18.11
2022-08-03T23:37:20.169Z,18.13
2022-08-03T23:39:48.883Z,18.15
2022-08-03T23:42:18.661Z,18.17
2022-08-03T23:44:46.913Z,18.19
2022-08-03T23:47:14.635Z,18.21
2022-08-03T23:49:42.446Z,18.21
2022-08-03T23:52:25.312Z,18.20
2022-08-03T23:55:09.026Z,18.17
2022-08-03T23:57:45.612Z,18.15
